LFAT/LTQ METAR and TAF weather

Enter ICAO airport designator
Station Type Date Time Source
LFAT METAR 2019/10/14 05:30 UTC NOAA

LFAT 140530Z AUTO 10007KT 9999 FEW041/// SCT056/// BKN100/// ///CB 13/13 Q1010


Station Type Date Time Source
LFAT Decoded METAR 2019/10/14 05:30 UTC NOAA

Le Touquet, France (LFAT) 50-31N 001-37E 14M
Oct 14, 2019 - 01:30 AM EDT / 2019.10.14 0530 UTC
Wind: from the E (100 degrees) at 8 MPH (7 KT):0
Visibility: greater than 7 mile(s):0
Sky conditions: mostly cloudy
Weather: Cumulonimbus clouds observed
Temperature: 55 F (13 C)
Dew Point: 55 F (13 C)
Relative Humidity: 100%
Pressure (altimeter): 29.83 in. Hg (1010 hPa)
ob: LFAT 140530Z AUTO 10007KT 9999 FEW041/// SCT056/// BKN100/// ///CB 13/13 Q1010
cycle: 5

Station Type Date Time Source
LFAT TAF 2018/07/14 09:21 UTC NOAA

TAF TAF LFAT 140800Z 1409/1421 09004KT 8000 NSC
BECMG 1409/1411 30010KT

Example: see airport list